Terminal Aerodrome Forecast
Issued by NWS

Home | Current Version | Previous Version | Text Only | Print | Product List | Glossary Off
Versions: 1 2 3 4 5 6 7 8 9 10 11 12 13 14 15 16 17 18 19 20

000
FTUS43 KFGF 190520
TAFBJI
TAF
KBJI 190520Z 1906/2006 VRB06KT P6SM BKN120
     FM191400 11007KT P6SM BKN040
     FM200000 12010KT P6SM BKN110=

USA.gov is the U.S. government's official web portal to all federal, state and local government web resources and services.